createdAt,value
2023-04-17T08:12:37.267Z,59.90
2023-04-17T08:15:06.947Z,59.70
2023-04-17T08:17:36.749Z,59.90
2023-04-17T08:20:16.352Z,60.00
2023-04-17T08:22:46.915Z,60.20
2023-04-17T08:25:16.871Z,60.80
2023-04-17T08:27:47.206Z,61.10
2023-04-17T08:30:19.332Z,61.60
2023-04-17T08:32:50.023Z,61.90
2023-04-17T08:35:19.899Z,61.80
2023-04-17T08:37:49.694Z,61.70
2023-04-17T08:40:20.314Z,61.80
2023-04-17T08:42:53.337Z,62.10
2023-04-17T08:45:25.602Z,62.60
2023-04-17T08:47:55.070Z,63.30
2023-04-17T08:50:24.811Z,64.20
2023-04-17T08:52:54.332Z,64.60
2023-04-17T08:55:26.426Z,64.60
2023-04-17T08:58:02.999Z,65.00
2023-04-17T09:00:32.797Z,65.00
2023-04-17T09:03:03.084Z,65.60
2023-04-17T09:05:36.777Z,65.90
2023-04-17T09:08:19.481Z,66.00
2023-04-17T09:10:50.222Z,66.00
2023-04-17T09:13:20.857Z,66.20
2023-04-17T09:16:06.703Z,66.60
2023-04-17T09:18:38.269Z,66.60
2023-04-17T09:21:08.539Z,66.80
2023-04-17T09:23:54.756Z,66.90
2023-04-17T09:26:31.101Z,67.10
2023-04-17T09:32:17.425Z,67.70
2023-04-17T09:34:46.830Z,67.80
2023-04-17T09:37:16.198Z,67.80
2023-04-17T09:40:02.539Z,68.10
2023-04-17T09:42:32.775Z,67.70
2023-04-17T09:45:20.525Z,67.70
2023-04-17T09:47:51.147Z,67.50
2023-04-17T09:50:23.687Z,67.60
2023-04-17T09:52:54.657Z,67.40
2023-04-17T09:55:25.292Z,67.10
2023-04-17T09:58:02.020Z,66.80
2023-04-17T10:00:32.410Z,67.70
2023-04-17T10:03:02.119Z,68.30
2023-04-17T10:05:33.858Z,68.30
2023-04-17T10:08:04.208Z,67.50
2023-04-17T10:10:38.387Z,67.40
2023-04-17T10:13:09.744Z,67.60
2023-04-17T10:15:39.662Z,67.70
2023-04-17T10:18:27.967Z,67.50
2023-04-17T10:20:57.823Z,67.70
2023-04-17T10:23:34.813Z,67.90
2023-04-17T10:26:22.477Z,68.00
2023-04-17T10:28:53.038Z,68.10
2023-04-17T10:31:27.114Z,68.10
2023-04-17T10:34:44.011Z,68.40
2023-04-17T10:37:17.272Z,68.40
2023-04-17T10:40:03.165Z,68.30
2023-04-17T10:42:32.640Z,69.30
2023-04-17T10:45:06.341Z,69.10
2023-04-17T10:47:36.560Z,69.00
2023-04-17T10:50:07.120Z,69.40
2023-04-17T10:52:36.834Z,69.60
2023-04-17T10:55:22.624Z,69.60
2023-04-17T10:57:55.157Z,69.70
2023-04-17T11:00:49.838Z,70.10
2023-04-17T11:06:29.784Z,70.30
2023-04-17T11:08:59.547Z,70.40
2023-04-17T11:11:43.668Z,70.90
2023-04-17T11:14:19.729Z,71.20
2023-04-17T11:16:50.891Z,70.90
2023-04-17T11:19:27.251Z,70.60
2023-04-17T11:22:00.041Z,70.50
2023-04-17T11:24:30.955Z,70.80
2023-04-17T11:27:02.729Z,70.80
2023-04-17T11:29:32.678Z,71.10
2023-04-17T11:32:02.961Z,71.30
2023-04-17T11:34:32.352Z,71.20
2023-04-17T11:37:03.228Z,71.50
2023-04-17T11:39:34.226Z,71.60
2023-04-17T11:42:07.198Z,71.50
2023-04-17T11:44:37.051Z,71.70
2023-04-17T11:47:07.903Z,71.80
2023-04-17T11:49:40.664Z,72.10
2023-04-17T11:52:13.070Z,72.10
2023-04-17T11:54:43.102Z,72.00
2023-04-17T11:57:17.411Z,72.30
2023-04-17T11:59:50.651Z,72.60
2023-04-17T12:02:20.180Z,72.40
2023-04-17T12:04:49.898Z,72.70
2023-04-17T12:07:26.487Z,72.90
2023-04-17T12:09:59.526Z,73.10
2023-04-17T12:12:28.973Z,73.20
2023-04-17T12:14:58.395Z,73.00
2023-04-17T12:17:28.692Z,73.10
2023-04-17T12:19:58.039Z,73.40
2023-04-17T12:22:27.875Z,73.60
2023-04-17T12:24:57.556Z,73.70
2023-04-17T12:27:27.606Z,73.90
2023-04-17T12:29:57.551Z,74.50
2023-04-17T12:35:24.382Z,76.80
2023-04-17T12:37:53.792Z,77.10
2023-04-17T12:40:24.855Z,77.40
2023-04-17T12:42:56.346Z,77.60
2023-04-17T12:45:26.311Z,77.30
2023-04-17T12:47:56.233Z,77.60
2023-04-17T12:50:25.645Z,77.00
2023-04-17T12:52:55.011Z,74.40
2023-04-17T12:55:24.412Z,73.70
2023-04-17T12:57:54.390Z,73.10
2023-04-17T13:00:24.301Z,72.60
2023-04-17T13:02:53.826Z,72.60
2023-04-17T13:05:23.290Z,72.30
2023-04-17T13:07:52.700Z,72.60
2023-04-17T13:10:22.641Z,72.80
2023-04-17T13:12:52.550Z,72.70
2023-04-17T13:15:22.030Z,72.90
2023-04-17T13:17:51.434Z,73.00
2023-04-17T13:20:20.971Z,73.20
2023-04-17T13:22:50.705Z,73.30
2023-04-17T13:25:20.489Z,73.50
2023-04-17T13:27:50.741Z,73.70
2023-04-17T13:30:20.681Z,73.70
2023-04-17T13:32:50.201Z,73.90
2023-04-17T13:35:20.116Z,74.20
2023-04-17T13:37:49.858Z,74.30
2023-04-17T13:40:19.241Z,74.30
2023-04-17T13:42:49.685Z,74.50
2023-04-17T13:45:19.554Z,74.50
2023-04-17T13:47:49.102Z,74.60
2023-04-17T13:50:19.103Z,74.60
2023-04-17T13:52:49.037Z,74.70
2023-04-17T13:55:19.353Z,75.30
2023-04-17T13:57:48.934Z,75.10
2023-04-17T14:00:19.932Z,75.20
2023-04-17T14:02:49.925Z,75.40
2023-04-17T14:05:19.812Z,75.40
2023-04-17T14:07:49.579Z,75.70
2023-04-17T14:10:20.038Z,75.90
2023-04-17T14:12:49.455Z,75.80
2023-04-17T14:15:18.857Z,76.00
2023-04-17T14:17:48.770Z,75.90
2023-04-17T14:20:19.512Z,76.20
2023-04-17T14:22:49.397Z,76.40
2023-04-17T14:25:19.214Z,76.30
2023-04-17T14:27:49.112Z,76.00
2023-04-17T14:30:18.895Z,76.20
2023-04-17T14:32:51.517Z,76.00
2023-04-17T14:35:22.169Z,76.00
2023-04-17T14:37:52.222Z,76.10
2023-04-17T14:40:22.031Z,76.20
2023-04-17T14:42:54.623Z,76.00
2023-04-17T14:45:24.830Z,76.40
2023-04-17T14:47:55.123Z,76.60
2023-04-17T14:50:24.931Z,76.80
2023-04-17T14:52:54.765Z,76.60
2023-04-17T14:55:27.914Z,76.90
2023-04-17T14:57:57.282Z,76.90
2023-04-17T15:00:27.056Z,76.90
2023-04-17T15:02:56.586Z,77.00
2023-04-17T15:05:26.262Z,76.80
2023-04-17T15:07:56.347Z,77.40
2023-04-17T15:10:27.510Z,77.30
2023-04-17T15:13:01.834Z,77.60
2023-04-17T15:15:31.626Z,78.10
2023-04-17T15:18:01.559Z,77.60
2023-04-17T15:20:31.573Z,78.00
2023-04-17T15:23:00.901Z,78.20
2023-04-17T15:25:30.805Z,78.60
2023-04-17T15:28:00.201Z,78.60
2023-04-17T15:30:29.554Z,78.30
2023-04-17T15:32:58.965Z,78.30
2023-04-17T15:35:28.377Z,78.00
2023-04-17T17:00:59.412Z,81.90
2023-04-17T17:03:30.060Z,81.40
2023-04-17T17:05:59.975Z,81.10
2023-04-17T17:08:29.431Z,81.00
2023-04-17T17:10:58.828Z,80.80
2023-04-17T17:13:29.008Z,80.40
2023-04-17T17:15:58.802Z,80.00
2023-04-17T17:18:28.542Z,80.00
2023-04-17T17:21:00.567Z,80.00
2023-04-17T17:23:29.908Z,80.50
2023-04-17T17:25:59.262Z,80.80
2023-04-17T17:28:29.084Z,80.90
2023-04-17T17:31:03.067Z,80.70
2023-04-17T17:33:34.165Z,80.50
2023-04-17T17:36:04.111Z,80.30
2023-04-17T17:38:34.517Z,80.30
2023-04-17T17:41:04.307Z,80.80
2023-04-17T17:43:33.642Z,81.00
2023-04-17T17:46:03.523Z,80.90
2023-04-17T17:48:32.920Z,80.80
2023-04-17T17:51:02.770Z,81.10
2023-04-17T17:53:32.765Z,81.00
2023-04-17T17:56:02.611Z,81.50
2023-04-17T17:58:32.081Z,81.40
2023-04-17T18:01:02.052Z,81.70
2023-04-17T18:03:32.156Z,81.40
2023-04-17T18:06:01.660Z,81.70
2023-04-17T18:08:31.387Z,82.00
2023-04-17T18:11:01.109Z,82.00
2023-04-17T18:13:30.906Z,82.10
2023-04-17T18:16:00.306Z,82.20
2023-04-17T18:18:29.668Z,81.70
2023-04-17T18:20:59.157Z,81.60
2023-04-17T18:23:28.934Z,81.60
2023-04-17T18:25:59.908Z,81.50
2023-04-17T18:28:29.693Z,81.30
2023-04-17T18:30:59.478Z,81.10
2023-04-17T18:33:30.332Z,81.10
2023-04-17T18:36:00.290Z,81.00
2023-04-17T18:38:32.448Z,80.90
2023-04-17T18:41:03.127Z,80.80
2023-04-17T18:43:32.864Z,80.60
2023-04-17T18:46:05.597Z,80.60
2023-04-17T18:48:36.041Z,80.60
2023-04-17T18:51:12.534Z,80.60
2023-04-17T18:53:41.905Z,80.80
2023-04-17T18:56:13.744Z,80.50
2023-04-17T18:58:43.151Z,80.70
2023-04-17T19:01:13.774Z,81.00
2023-04-17T19:03:43.424Z,81.10
2023-04-17T19:06:13.199Z,81.20
2023-04-17T19:08:42.930Z,81.20
2023-04-17T19:11:12.450Z,81.30
2023-04-17T19:13:43.908Z,81.50
2023-04-17T19:16:14.058Z,81.50
2023-04-17T19:18:43.853Z,81.40
2023-04-17T19:21:13.309Z,81.20
2023-04-17T19:23:43.233Z,81.40
2023-04-17T19:26:13.096Z,81.10
2023-04-17T19:28:42.869Z,81.30
2023-04-17T19:31:12.798Z,81.20
2023-04-17T19:33:42.750Z,81.50
2023-04-17T19:36:12.686Z,81.70
2023-04-17T19:38:42.564Z,81.80
2023-04-17T19:41:19.469Z,82.00
2023-04-17T19:43:51.659Z,82.00
2023-04-17T19:46:21.923Z,81.70
2023-04-17T19:48:52.426Z,81.60
2023-04-17T19:51:22.252Z,81.70
2023-04-17T19:53:52.125Z,81.70
2023-04-17T19:56:21.911Z,81.80
2023-04-17T19:58:51.678Z,81.80
2023-04-17T20:01:21.605Z,81.80
2023-04-17T20:03:51.109Z,81.80
2023-04-17T20:06:29.908Z,81.70
2023-04-17T20:09:00.057Z,81.80
2023-04-17T20:11:29.446Z,81.60
2023-04-17T20:13:58.810Z,81.70
2023-04-17T20:16:28.243Z,81.60
2023-04-17T20:18:58.557Z,81.30
2023-04-17T20:21:28.266Z,81.30
2023-04-17T20:24:20.023Z,81.50
2023-04-17T20:26:48.803Z,81.60
2023-04-17T20:29:18.212Z,81.60
2023-04-17T20:31:47.648Z,81.30
2023-04-17T20:34:17.476Z,81.10
2023-04-17T20:36:47.164Z,81.00
2023-04-17T20:39:16.848Z,81.10
2023-04-17T21:08:30.061Z,81.10
2023-04-17T21:11:00.236Z,80.80
2023-04-17T21:13:30.173Z,80.70
2023-04-17T21:15:59.531Z,80.60
2023-04-17T21:18:28.893Z,80.70
2023-04-17T21:20:58.665Z,80.30
2023-04-17T21:23:28.389Z,80.30
2023-04-17T21:25:58.221Z,80.60
2023-04-17T21:28:27.607Z,80.60
2023-04-17T21:30:56.981Z,80.80
2023-04-17T21:33:26.316Z,81.00
2023-04-17T21:35:56.461Z,80.90
2023-04-17T21:38:26.225Z,80.80
2023-04-17T21:40:55.555Z,80.70
2023-04-17T21:44:14.072Z,80.60
2023-04-17T21:46:34.138Z,80.60
2023-04-17T21:49:03.499Z,80.40
2023-04-17T21:51:43.291Z,80.10
2023-04-17T21:54:30.261Z,79.90
2023-04-17T21:56:59.579Z,80.10
2023-04-17T22:02:04.565Z,80.00
2023-04-17T22:04:34.048Z,79.70
2023-04-17T22:07:03.441Z,79.60
2023-04-17T22:12:14.380Z,79.70
2023-04-17T22:14:43.753Z,79.80
2023-04-17T22:17:13.308Z,79.90
2023-04-17T22:19:45.022Z,79.70
2023-04-17T22:22:14.381Z,79.70
2023-04-17T22:24:44.012Z,79.70
2023-04-17T22:27:13.974Z,79.80
2023-04-17T22:29:43.308Z,79.80
2023-04-17T22:32:13.131Z,79.60
2023-04-17T22:34:42.693Z,79.30
2023-04-17T22:37:12.034Z,78.90
2023-04-17T22:39:41.777Z,79.00
2023-04-17T22:42:11.247Z,79.00
